Time;durP1;ratioP1;P1;durP2;ratioP2;P2;SDS_P1;SDS_P2;PMS_P1;PMS_P2;Temp;Humidity;BMP_temperature;BMP_pressure;BME280_temperature;BME280_humidity;BME280_pressure;Samples;Min_cycle;Max_cycle;Signal;HPM_P1;HPM_P2
2022/09/17 00:02:21;;;;;;;61.27;7.30;;;;;;;17.70;62.95;99902.84;4937483;28;120379;-79
2022/09/17 00:04:50;;;;;;;38.97;7.22;;;;;;;17.73;62.48;99910.88;4920030;28;120411;-80
2022/09/17 00:07:17;;;;;;;51.20;7.90;;;;;;;17.72;63.20;99908.63;4941196;28;121671;-79
2022/09/17 00:09:43;;;;;;;43.10;6.73;;;;;;;17.69;62.51;99902.09;4904437;28;122995;-78
2022/09/17 00:12:14;;;;;;;56.28;7.25;;;;;;;17.69;62.72;99904.88;4921566;28;120241;-77
2022/09/17 00:14:40;;;;;;;65.10;7.95;;;;;;;17.69;63.34;99910.41;4922472;28;120376;-77
2022/09/17 00:17:06;;;;;;;50.65;7.18;;;;;;;17.72;63.02;99914.94;4922609;28;121118;-78
2022/09/17 00:19:31;;;;;;;33.00;6.07;;;;;;;17.67;61.57;99904.63;4921867;28;121112;-77
2022/09/17 00:22:00;;;;;;;54.30;7.80;;;;;;;17.69;62.76;99902.09;4939363;28;120243;-77
2022/09/17 00:24:25;;;;;;;53.50;7.32;;;;;;;17.73;61.75;99915.69;4886411;28;122931;-79
2022/09/17 00:26:52;;;;;;;56.30;7.43;;;;;;;17.72;62.21;99914.19;4929762;28;121460;-79
2022/09/17 00:29:18;;;;;;;67.88;7.63;;;;;;;17.68;61.70;99913.72;4934230;28;121263;-79
2022/09/17 00:31:43;;;;;;;59.63;7.63;;;;;;;17.59;62.37;99906.47;4939390;28;120606;-79
2022/09/17 00:34:10;;;;;;;46.23;6.27;;;;;;;17.69;62.03;99921.50;4913078;28;121689;-79
2022/09/17 00:36:37;;;;;;;58.58;7.65;;;;;;;17.68;62.25;99920.00;4926101;28;121481;-78
2022/09/17 00:39:14;;;;;;;41.50;6.70;;;;;;;17.70;62.78;99928.56;4935902;28;121305;-77
2022/09/17 00:41:40;;;;;;;44.03;6.20;;;;;;;17.67;61.83;99915.72;4899262;28;122351;-78
2022/09/17 00:44:44;;;;;;;38.67;6.38;;;;;;;17.67;61.25;99917.72;4924601;28;120421;-78
2022/09/17 00:47:19;;;;;;;46.67;7.00;;;;;;;17.63;61.98;99918.00;4939653;28;120014;-78
2022/09/17 00:49:48;;;;;;;38.43;6.37;;;;;;;17.62;61.35;99924.09;4918590;28;120761;-79
2022/09/17 00:52:19;;;;;;;47.75;7.07;;;;;;;17.56;61.69;99915.06;4936876;28;120356;-78
2022/09/17 00:54:57;;;;;;;44.15;6.25;;;;;;;17.57;61.52;99906.22;4924739;28;119665;-79
2022/09/17 00:57:23;;;;;;;40.45;6.22;;;;;;;17.57;61.33;99928.41;4923685;28;123219;-79
2022/09/17 00:59:49;;;;;;;35.03;6.45;;;;;;;17.55;61.47;99933.72;4925604;28;120187;-81
2022/09/17 01:02:16;;;;;;;47.28;6.28;;;;;;;17.54;61.15;99932.22;4941256;28;119860;-78
2022/09/17 01:04:41;;;;;;;36.40;6.25;;;;;;;17.50;61.08;99926.94;4925467;28;120710;-78
2022/09/17 01:08:18;;;;;;;35.58;6.18;;;;;;;17.52;60.60;99929.22;4922637;28;120262;-79
2022/09/17 01:11:01;;;;;;;26.95;5.72;;;;;;;17.49;60.08;99919.13;4911523;28;120133;-79
2022/09/17 01:13:36;;;;;;;38.47;6.57;;;;;;;17.46;60.62;99923.69;4945153;28;119985;-79
2022/09/17 01:16:26;;;;;;;31.67;5.67;;;;;;;17.40;60.12;99917.44;4926433;28;121382;-79
2022/09/17 01:19:11;;;;;;;35.47;6.10;;;;;;;17.43;60.17;99923.97;4924298;28;121835;-78
2022/09/17 01:21:50;;;;;;;46.08;6.25;;;;;;;17.41;60.95;99923.75;4926117;28;120169;-79
2022/09/17 01:24:46;;;;;;;40.17;6.25;;;;;;;17.41;60.21;99918.94;4908553;28;122542;-79
2022/09/17 01:27:45;;;;;;;29.83;5.37;;;;;;;17.39;60.05;99921.47;4907609;28;121752;-79
2022/09/17 01:30:22;;;;;;;31.00;5.57;;;;;;;17.35;59.44;99925.81;4910291;28;120602;-78
2022/09/17 01:32:51;;;;;;;34.07;5.47;;;;;;;17.39;59.41;99929.06;4917877;28;121684;-78
2022/09/17 01:35:31;;;;;;;37.65;6.10;;;;;;;17.36;59.75;99930.84;4916929;28;120851;-79
2022/09/17 01:38:18;;;;;;;41.17;6.30;;;;;;;17.32;59.45;99926.84;4928833;28;119800;-79
2022/09/17 01:41:06;;;;;;;43.38;6.20;;;;;;;17.29;60.45;99920.31;4941509;28;120308;-78
2022/09/17 01:44:00;;;;;;;47.15;6.25;;;;;;;17.32;60.21;99926.84;4938583;28;120132;-79
2022/09/17 01:46:31;;;;;;;34.78;5.65;;;;;;;17.29;59.66;99933.41;4925375;28;120306;-78
2022/09/17 01:49:04;;;;;;;39.40;6.10;;;;;;;17.21;58.70;99921.38;4926349;28;120183;-79
2022/09/17 01:51:44;;;;;;;44.63;6.43;;;;;;;17.21;58.79;99932.44;4915837;28;120073;-81
2022/09/17 01:54:19;;;;;;;34.33;6.00;;;;;;;17.15;59.07;99930.47;4924119;28;121047;-77
2022/09/17 01:56:52;;;;;;;56.70;7.20;;;;;;;17.16;60.71;99936.78;4943925;28;120607;-77
2022/09/17 01:59:21;;;;;;;37.63;5.70;;;;;;;17.08;59.92;99936.56;4915347;28;119948;-76
2022/09/17 02:01:52;;;;;;;36.63;6.23;;;;;;;17.08;59.86;99938.59;4945877;28;120376;-77
2022/09/17 02:04:42;;;;;;;32.58;6.00;;;;;;;17.03;60.08;99940.09;4927464;28;119848;-77
2022/09/17 02:07:19;;;;;;;53.58;6.85;;;;;;;16.99;60.73;99931.31;4923181;28;120875;-77
2022/09/17 02:09:58;;;;;;;38.92;6.05;;;;;;;16.98;60.37;99943.66;4909774;28;121143;-77
2022/09/17 02:12:31;;;;;;;27.20;5.75;;;;;;;16.93;59.91;99938.16;4924016;28;120236;-77
2022/09/17 02:15:01;;;;;;;65.80;7.07;;;;;;;16.89;60.62;99941.22;4927926;28;120911;-77
2022/09/17 02:17:55;;;;;;;49.05;6.88;;;;;;;16.85;60.30;99935.94;4943378;28;121283;-77
2022/09/17 02:20:28;;;;;;;40.28;6.60;;;;;;;16.81;60.18;99934.72;4901596;28;120103;-77
2022/09/17 02:22:58;;;;;;;39.25;6.07;;;;;;;16.76;60.12;99932.69;4925598;28;120586;-77
2022/09/17 02:25:37;;;;;;;50.08;6.75;;;;;;;16.73;61.57;99928.94;4931094;28;120230;-77
2022/09/17 02:28:29;;;;;;;43.13;6.45;;;;;;;16.70;61.14;99929.97;4894793;28;120390;-77
2022/09/17 02:30:55;;;;;;;55.00;7.05;;;;;;;16.63;61.23;99932.50;4911437;28;123054;-76
2022/09/17 02:33:21;;;;;;;45.67;5.80;;;;;;;16.63;61.75;99940.81;4926376;28;120496;-77
2022/09/17 02:35:47;;;;;;;51.23;6.23;;;;;;;16.53;59.97;99920.94;4928484;28;119977;-77
2022/09/17 02:38:20;;;;;;;48.47;6.50;;;;;;;16.59;61.27;99930.00;4942681;28;120595;-77
2022/09/17 02:40:56;;;;;;;47.35;6.40;;;;;;;16.56;60.23;99931.78;4926358;28;119940;-77
2022/09/17 02:43:57;;;;;;;36.80;5.78;;;;;;;16.55;60.77;99935.78;4912894;28;120529;-77
2022/09/17 02:46:50;;;;;;;37.05;6.03;;;;;;;16.54;60.80;99928.00;4929769;28;121443;-77
2022/09/17 02:49:34;;;;;;;49.87;6.23;;;;;;;16.54;60.59;99925.97;4941046;28;120649;-76
2022/09/17 02:52:12;;;;;;;36.25;6.20;;;;;;;16.52;59.98;99927.75;4920923;28;121209;-76
2022/09/17 02:55:07;;;;;;;34.88;5.80;;;;;;;16.51;60.89;99929.00;4921516;28;120182;-76
2022/09/17 02:57:41;;;;;;;37.57;6.03;;;;;;;16.47;60.56;99917.44;4925662;28;120949;-76
2022/09/17 03:00:19;;;;;;;51.25;6.95;;;;;;;16.47;60.77;99923.75;4939528;28;119964;-76
2022/09/17 03:03:04;;;;;;;56.00;7.07;;;;;;;16.47;61.13;99926.50;4921349;28;119912;-77
2022/09/17 03:05:31;;;;;;;49.53;6.72;;;;;;;16.44;60.75;99924.75;4910097;28;120430;-77
2022/09/17 03:07:58;;;;;;;60.13;7.60;;;;;;;16.45;61.85;99920.72;4927075;28;123487;-77
2022/09/17 03:10:29;;;;;;;46.22;6.18;;;;;;;16.40;60.61;99920.75;4902577;28;120437;-76
2022/09/17 03:12:54;;;;;;;51.95;6.70;;;;;;;16.41;60.19;99923.00;4927087;28;123201;-76
2022/09/17 03:15:20;;;;;;;32.08;6.00;;;;;;;16.38;59.17;99926.06;4926056;28;120096;-76
2022/09/17 03:17:45;;;;;;;58.03;7.07;;;;;;;16.37;60.53;99922.53;4909762;28;120244;-76
2022/09/17 03:20:11;;;;;;;50.42;7.00;;;;;;;16.31;61.33;99924.53;4926126;28;123313;-77
2022/09/17 03:22:37;;;;;;;59.67;7.50;;;;;;;16.35;60.30;99927.81;4926271;28;120021;-77
2022/09/17 03:25:02;;;;;;;36.17;5.93;;;;;;;16.31;60.78;99927.31;4925827;28;121859;-77
2022/09/17 03:27:28;;;;;;;60.30;7.93;;;;;;;16.32;60.74;99933.59;4941850;28;120264;-76
2022/09/17 03:29:54;;;;;;;44.63;6.22;;;;;;;16.31;60.64;99927.31;4919418;28;120783;-77
2022/09/17 03:32:29;;;;;;;41.75;7.10;;;;;;;16.28;60.75;99928.34;4928923;28;120681;-79
2022/09/17 03:34:55;;;;;;;62.00;7.00;;;;;;;16.26;61.14;99925.31;4929185;28;121028;-77
2022/09/17 03:37:21;;;;;;;66.47;6.83;;;;;;;16.28;60.49;99928.34;4924632;28;120382;-77
2022/09/17 03:39:46;;;;;;;49.80;7.10;;;;;;;16.30;61.67;99925.06;4887875;28;122790;-77
2022/09/17 03:42:12;;;;;;;35.23;6.20;;;;;;;16.28;60.41;99928.34;4925116;28;119946;-78
2022/09/17 03:44:38;;;;;;;45.05;7.03;;;;;;;16.24;61.09;99914.00;4909961;28;122719;-77
2022/09/17 03:47:03;;;;;;;58.17;7.40;;;;;;;16.23;61.52;99918.03;4903731;28;123524;-78
2022/09/17 03:49:29;;;;;;;64.30;7.68;;;;;;;16.31;61.80;99921.03;4939479;28;119993;-77
2022/09/17 03:51:55;;;;;;;53.40;7.43;;;;;;;16.26;60.40;99914.25;4926733;28;119951;-78
2022/09/17 03:54:20;;;;;;;49.47;6.73;;;;;;;16.31;60.68;99919.00;4910829;28;123322;-77
2022/09/17 03:56:54;;;;;;;47.72;6.68;;;;;;;16.31;61.51;99926.56;4925959;28;120563;-78
2022/09/17 03:59:19;;;;;;;60.03;7.35;;;;;;;16.30;62.03;99920.28;4927240;28;121209;-77
2022/09/17 04:01:45;;;;;;;74.27;8.07;;;;;;;16.33;61.46;99924.81;4927107;28;120296;-77
2022/09/17 04:04:11;;;;;;;48.03;6.90;;;;;;;16.32;61.70;99914.97;4910195;28;122275;-78
2022/09/17 04:06:36;;;;;;;41.08;6.40;;;;;;;16.31;62.32;99916.25;4886263;28;122668;-77
2022/09/17 04:09:04;;;;;;;49.85;6.88;;;;;;;16.39;61.45;99924.78;4908599;28;120351;-78
2022/09/17 04:11:29;;;;;;;59.33;7.23;;;;;;;16.42;62.61;99927.28;4886738;28;121831;-78
2022/09/17 04:13:55;;;;;;;35.90;6.57;;;;;;;16.45;61.94;99925.50;4906567;28;122985;-78
2022/09/17 04:16:21;;;;;;;46.43;6.50;;;;;;;16.40;61.91;99915.97;4929169;28;120374;-78
2022/09/17 04:18:46;;;;;;;59.33;7.95;;;;;;;16.40;61.22;99912.47;4924186;28;120533;-78
2022/09/17 04:21:12;;;;;;;39.63;6.40;;;;;;;16.39;61.82;99908.94;4925609;28;120332;-79
2022/09/17 04:23:41;;;;;;;66.97;7.97;;;;;;;16.46;61.75;99916.69;4890049;28;121664;-78
2022/09/17 04:26:09;;;;;;;47.90;6.38;;;;;;;16.47;62.46;99918.22;4908701;28;122388;-78
2022/09/17 04:28:37;;;;;;;58.85;7.28;;;;;;;16.45;61.59;99917.22;4926001;28;120554;-78
2022/09/17 04:31:03;;;;;;;60.80;7.32;;;;;;;16.42;61.99;99904.41;4919802;28;120591;-78
2022/09/17 04:33:28;;;;;;;52.13;7.00;;;;;;;16.47;61.30;99914.69;4892986;28;122838;-77
2022/09/17 04:35:54;;;;;;;46.17;6.63;;;;;;;16.48;61.62;99914.19;4924961;28;119781;-77
2022/09/17 04:38:22;;;;;;;48.03;6.93;;;;;;;16.48;61.78;99914.19;4906885;28;122447;-78
2022/09/17 04:40:50;;;;;;;75.38;7.82;;;;;;;16.46;62.96;99911.16;4926253;28;122212;-77
2022/09/17 04:43:19;;;;;;;70.60;7.45;;;;;;;16.45;61.89;99906.88;4937369;28;121314;-76
2022/09/17 04:45:46;;;;;;;38.70;6.30;;;;;;;16.52;62.08;99920.19;4922365;28;122999;-77
2022/09/17 04:48:11;;;;;;;29.43;5.67;;;;;;;16.51;62.07;99915.91;4943775;28;119970;-77
2022/09/17 04:50:37;;;;;;;39.00;6.07;;;;;;;16.55;62.57;99919.16;4922313;28;121044;-77
2022/09/17 04:53:06;;;;;;;48.87;6.87;;;;;;;16.51;62.35;99904.84;4923430;28;121135;-77
2022/09/17 04:55:31;;;;;;;45.83;6.65;;;;;;;16.53;61.89;99907.09;4921649;28;120690;-76
2022/09/17 04:57:57;;;;;;;39.50;5.88;;;;;;;16.52;61.13;99906.34;4927792;28;119558;-76
2022/09/17 05:00:23;;;;;;;60.95;6.68;;;;;;;16.48;61.82;99914.19;4941875;28;121748;-76
2022/09/17 05:02:52;;;;;;;48.60;6.32;;;;;;;16.46;62.28;99896.56;4909111;28;121726;-77
2022/09/17 05:05:19;;;;;;;44.67;6.00;;;;;;;16.51;62.25;99909.63;4924065;28;119983;-77
2022/09/17 05:07:45;;;;;;;36.70;5.80;;;;;;;16.48;62.56;99903.09;4906822;28;119860;-77
2022/09/17 05:10:12;;;;;;;59.60;7.20;;;;;;;16.48;63.11;99910.66;4926465;28;119806;-77
2022/09/17 05:12:38;;;;;;;46.35;6.05;;;;;;;16.55;63.05;99919.16;4924640;28;122209;-77
2022/09/17 05:15:04;;;;;;;47.87;5.90;;;;;;;16.53;62.78;99918.94;4925503;28;120090;-77
2022/09/17 05:17:30;;;;;;;36.33;6.20;;;;;;;16.49;62.89;99898.31;4919638;28;122046;-77
2022/09/17 05:19:59;;;;;;;75.28;7.50;;;;;;;16.60;62.88;99914.16;4938545;28;120316;-77
2022/09/17 05:22:25;;;;;;;42.63;6.25;;;;;;;16.62;62.97;99914.38;4923150;28;119900;-76
2022/09/17 05:24:50;;;;;;;41.55;5.63;;;;;;;16.58;62.69;99909.13;4935033;28;120240;-77
2022/09/17 05:27:16;;;;;;;44.70;6.78;;;;;;;16.64;63.26;99911.84;4923349;28;120017;-77
2022/09/17 05:29:44;;;;;;;37.33;6.13;;;;;;;16.67;62.71;99914.38;4923681;28;121079;-77
2022/09/17 05:32:10;;;;;;;56.92;7.45;;;;;;;16.73;63.51;99922.66;4945789;28;123032;-78
2022/09/17 05:34:36;;;;;;;50.07;6.77;;;;;;;16.71;63.05;99911.34;4942259;28;120495;-77
2022/09/17 05:37:01;;;;;;;41.80;5.95;;;;;;;16.79;64.01;99920.59;4892617;28;121852;-78
2022/09/17 05:39:27;;;;;;;43.67;5.80;;;;;;;16.82;62.68;99931.44;4926749;28;122713;-77
2022/09/17 05:41:56;;;;;;;56.38;6.80;;;;;;;16.86;62.89;99925.63;4929220;28;120065;-77
2022/09/17 05:44:22;;;;;;;52.03;6.68;;;;;;;16.84;62.58;99917.81;4939672;28;120021;-77
2022/09/17 05:46:52;;;;;;;48.63;6.85;;;;;;;16.94;61.79;99923.81;4912081;28;120037;-78
2022/09/17 05:49:17;;;;;;;40.45;5.97;;;;;;;16.95;62.62;99910.69;4905815;28;123338;-78
2022/09/17 05:51:43;;;;;;;61.47;6.65;;;;;;;17.02;63.38;99918.47;4929842;28;122878;-77
2022/09/17 05:54:09;;;;;;;58.78;7.07;;;;;;;17.03;63.30;99914.41;4919709;28;120588;-77
2022/09/17 05:56:39;;;;;;;65.43;6.90;;;;;;;17.11;63.48;99918.16;4910157;28;120395;-77
2022/09/17 05:59:07;;;;;;;47.40;6.67;;;;;;;17.13;61.88;99919.16;4926824;28;123423;-77
2022/09/17 06:01:33;;;;;;;48.60;6.20;;;;;;;17.17;62.35;99922.41;4946421;28;120434;-77
2022/09/17 06:04:02;;;;;;;56.47;7.20;;;;;;;17.18;62.79;99918.34;4927696;28;119972;-77
2022/09/17 06:06:31;;;;;;;55.60;6.93;;;;;;;17.19;62.53;99917.09;4909276;28;119870;-77
2022/09/17 06:08:59;;;;;;;50.92;7.03;;;;;;;17.24;63.10;99923.09;4910705;28;121140;-77
2022/09/17 06:11:28;;;;;;;65.35;6.70;;;;;;;17.23;63.02;99916.06;4927022;28;121649;-77
2022/09/17 06:13:54;;;;;;;58.53;7.40;;;;;;;17.29;62.00;99928.63;4944196;28;120170;-77
2022/09/17 06:16:21;;;;;;;46.97;6.43;;;;;;;17.25;63.01;99922.59;4928871;28;120018;-78
2022/09/17 06:18:49;;;;;;;38.05;5.45;;;;;;;17.31;62.68;99920.56;4947207;28;120106;-77
2022/09/17 06:21:16;;;;;;;74.65;7.13;;;;;;;17.36;62.75;99938.41;4943417;28;120066;-77
2022/09/17 06:23:42;;;;;;;52.75;6.45;;;;;;;17.37;62.44;99928.81;4939659;28;119774;-77
2022/09/17 06:26:08;;;;;;;69.97;7.43;;;;;;;17.40;63.14;99925.00;4913942;28;123411;-78
2022/09/17 06:28:35;;;;;;;53.92;6.72;;;;;;;17.50;62.82;99931.72;4889073;28;122625;-78
2022/09/17 06:31:06;;;;;;;56.13;6.53;;;;;;;17.57;62.25;99942.28;4923634;28;122749;-78
2022/09/17 06:33:32;;;;;;;57.42;6.20;;;;;;;17.63;62.81;99939.44;4927929;28;120272;-78
2022/09/17 06:36:03;;;;;;;49.65;6.05;;;;;;;17.69;62.69;99943.69;4905308;28;120016;-78
2022/09/17 06:38:30;;;;;;;64.43;6.95;;;;;;;17.67;62.33;99934.38;4927396;28;123044;-78
2022/09/17 06:40:56;;;;;;;54.97;6.37;;;;;;;17.78;62.59;99942.63;4931369;28;120023;-78
2022/09/17 06:43:22;;;;;;;48.97;5.93;;;;;;;17.82;62.23;99940.31;4942313;28;120116;-78
2022/09/17 06:45:56;;;;;;;42.47;5.72;;;;;;;17.86;62.02;99940.03;4949319;28;122946;-77
2022/09/17 06:48:22;;;;;;;49.03;6.28;;;;;;;17.90;62.02;99946.78;4931428;28;119949;-78
2022/09/17 06:50:53;;;;;;;33.45;4.90;;;;;;;17.93;61.96;99945.00;4923513;28;120252;-79
2022/09/17 06:53:20;;;;;;;39.55;5.53;;;;;;;17.93;61.28;99936.69;4927730;28;119985;-77
2022/09/17 06:55:45;;;;;;;31.30;5.45;;;;;;;17.99;60.85;99943.69;4942586;28;119766;-77
2022/09/17 06:58:15;;;;;;;49.30;6.45;;;;;;;18.03;61.57;99940.63;4917614;28;122201;-77
2022/09/17 07:00:41;;;;;;;49.00;6.22;;;;;;;18.05;60.60;99949.19;4922047;28;120532;-77
2022/09/17 07:03:08;;;;;;;55.73;6.70;;;;;;;18.08;61.01;99946.13;4907345;28;122582;-78
2022/09/17 07:05:33;;;;;;;55.50;6.30;;;;;;;18.09;61.83;99933.00;4937091;28;121665;-78
2022/09/17 07:08:02;;;;;;;50.20;6.23;;;;;;;18.18;61.49;99937.44;4928538;28;120950;-77
2022/09/17 07:10:28;;;;;;;67.53;6.25;;;;;;;18.22;62.08;99940.69;4937378;28;120262;-77
2022/09/17 07:12:57;;;;;;;44.17;5.93;;;;;;;18.25;61.54;99934.84;4921908;28;119955;-77
2022/09/17 07:15:23;;;;;;;43.00;5.57;;;;;;;18.29;61.36;99940.09;4905901;28;122537;-77
2022/09/17 07:17:49;;;;;;;57.67;6.40;;;;;;;18.33;61.77;99943.34;4906321;28;121169;-76
2022/09/17 07:20:15;;;;;;;58.40;6.50;;;;;;;18.38;61.63;99942.53;4921552;28;121045;-77
2022/09/17 07:22:40;;;;;;;39.67;5.60;;;;;;;18.45;61.83;99943.94;4889709;28;122194;-77
2022/09/17 07:25:06;;;;;;;66.23;7.17;;;;;;;18.49;60.97;99944.44;4924088;28;119906;-77
2022/09/17 07:27:35;;;;;;;31.80;5.05;;;;;;;18.52;60.18;99943.38;4937853;28;121923;-77
2022/09/17 07:30:00;;;;;;;52.75;5.82;;;;;;;18.51;60.49;99953.00;4910934;28;121454;-76
2022/09/17 07:32:29;;;;;;;43.07;6.23;;;;;;;18.55;60.25;99950.66;4921782;28;120400;-77
2022/09/17 07:34:56;;;;;;;40.83;5.95;;;;;;;18.59;59.66;99954.66;4925942;28;121957;-78
2022/09/17 07:37:21;;;;;;;45.53;5.60;;;;;;;18.59;60.07;99949.09;4888499;28;123154;-77
2022/09/17 07:40:07;;;;;;;36.15;5.55;;;;;;;18.55;60.32;99939.56;4865496;28;120700;-77
2022/09/17 07:42:36;;;;;;;62.60;6.85;;;;;;;18.63;60.49;99957.91;4907050;28;122595;-77
2022/09/17 07:45:20;;;;;;;44.80;6.20;;;;;;;18.68;60.36;99956.31;4916346;28;120933;-77
2022/09/17 07:47:46;;;;;;;31.65;5.38;;;;;;;18.64;59.25;99944.75;4886588;28;120791;-77
2022/09/17 07:50:12;;;;;;;47.00;6.13;;;;;;;18.70;59.53;99959.34;4906421;28;119925;-77
2022/09/17 07:52:37;;;;;;;53.00;6.77;;;;;;;18.74;60.32;99948.69;4921613;28;122916;-78
2022/09/17 07:55:03;;;;;;;48.10;6.10;;;;;;;18.75;60.31;99946.66;4934245;28;121799;-77
2022/09/17 07:57:29;;;;;;;39.63;5.27;;;;;;;18.79;60.79;99949.88;4904942;28;121242;-77
2022/09/17 07:59:54;;;;;;;51.33;6.27;;;;;;;18.83;60.33;99950.34;4920061;28;119738;-77
2022/09/17 08:02:39;;;;;;;55.78;6.53;;;;;;;18.84;60.50;99952.59;4919928;28;120547;-77
2022/09/17 08:05:05;;;;;;;60.13;6.85;;;;;;;18.88;59.91;99953.03;4934815;28;121255;-77
2022/09/17 08:07:31;;;;;;;55.90;6.53;;;;;;;18.93;59.60;99954.25;4921046;28;120621;-77
2022/09/17 08:09:56;;;;;;;69.23;7.13;;;;;;;18.99;61.12;99955.69;4906016;28;120333;-77
2022/09/17 08:12:22;;;;;;;51.20;5.73;;;;;;;19.04;60.95;99947.78;4919390;28;121436;-78
2022/09/17 08:15:26;;;;;;;33.10;4.93;;;;;;;19.16;58.89;99954.69;4891257;28;120205;-77
2022/09/17 08:17:51;;;;;;;50.13;5.73;;;;;;;19.20;59.75;99957.94;4862498;28;122871;-77
2022/09/17 08:20:18;;;;;;;64.37;6.20;;;;;;;19.29;60.00;99954.75;4863693;28;121250;-77
2022/09/17 08:22:43;;;;;;;65.68;6.20;;;;;;;19.37;59.97;99958.41;4879483;28;120515;-78
2022/09/17 08:25:09;;;;;;;32.17;5.30;;;;;;;19.44;58.45;99955.03;4877757;28;122910;-77
2022/09/17 08:27:39;;;;;;;38.92;5.95;;;;;;;19.46;59.17;99960.81;4863616;28;120203;-78
2022/09/17 08:30:06;;;;;;;38.30;4.97;;;;;;;19.37;59.26;99950.06;4876838;28;121595;-77
2022/09/17 08:32:31;;;;;;;53.58;5.82;;;;;;;19.36;59.04;99956.91;4846092;28;123341;-77
2022/09/17 08:34:57;;;;;;;48.30;5.85;;;;;;;19.34;60.51;99956.69;4862480;28;120229;-77
2022/09/17 08:37:22;;;;;;;56.43;6.30;;;;;;;19.36;60.73;99951.34;4866683;28;120984;-78
2022/09/17 08:39:48;;;;;;;46.83;5.87;;;;;;;19.28;60.11;99956.03;4877748;28;120885;-78
2022/09/17 08:42:32;;;;;;;48.77;6.37;;;;;;;19.32;59.90;99960.00;4862360;28;122141;-77
2022/09/17 08:45:01;;;;;;;51.60;6.13;;;;;;;19.29;60.27;99957.53;4876670;28;120821;-77
2022/09/17 08:47:36;;;;;;;48.50;6.10;;;;;;;19.30;61.46;99973.69;4863023;28;120080;-77
2022/09/17 08:50:25;;;;;;;41.77;6.13;;;;;;;19.25;60.86;99968.97;4893141;28;121966;-77
2022/09/17 08:53:06;;;;;;;45.63;5.80;;;;;;;19.27;62.09;99976.78;4921521;28;121371;-77
2022/09/17 08:56:10;;;;;;;55.07;6.97;;;;;;;19.30;62.33;99976.47;4869659;28;121159;-78
2022/09/17 08:58:35;;;;;;;27.95;4.93;;;;;;;19.36;60.71;99979.16;4829326;28;120518;-78
2022/09/17 09:01:12;;;;;;;67.00;6.28;;;;;;;19.43;61.42;99977.81;4857635;28;120122;-78
2022/09/17 09:04:12;;;;;;;30.50;4.85;;;;;;;19.49;61.22;99982.00;4857388;28;120423;-77
2022/09/17 09:06:45;;;;;;;39.92;5.30;;;;;;;19.52;60.79;99978.16;4873712;28;120373;-78
2022/09/17 09:09:15;;;;;;;56.00;6.33;;;;;;;19.59;61.17;99979.59;4859328;28;120319;-77
2022/09/17 09:11:42;;;;;;;40.65;5.35;;;;;;;19.66;62.10;99975.47;4856584;28;120198;-78
2022/09/17 09:14:19;;;;;;;40.70;5.53;;;;;;;19.73;60.98;99977.63;4840409;28;121538;-77
2022/09/17 09:16:45;;;;;;;60.10;6.38;;;;;;;19.80;60.47;99983.31;4857099;28;121608;-77
2022/09/17 09:19:20;;;;;;;60.33;6.00;;;;;;;19.94;60.92;99981.31;4843751;28;124869;-77
2022/09/17 09:22:08;;;;;;;50.88;5.55;;;;;;;20.05;60.73;99974.78;4862045;28;121500;-77
2022/09/17 09:24:34;;;;;;;55.50;5.88;;;;;;;20.12;59.38;99980.50;4840565;28;120699;-77
2022/09/17 09:27:14;;;;;;;43.13;5.45;;;;;;;20.11;57.43;99975.44;4855748;28;121266;-78
2022/09/17 09:30:23;;;;;;;59.47;5.63;;;;;;;20.00;57.88;99970.81;4873831;28;121365;-77
2022/09/17 09:33:17;;;;;;;44.28;5.18;;;;;;;19.90;58.13;99972.53;4875033;28;120833;-77
2022/09/17 09:35:46;;;;;;;46.60;5.77;;;;;;;19.81;58.18;99979.22;4906619;28;120292;-76
2022/09/17 09:38:29;;;;;;;54.93;5.63;;;;;;;19.71;59.29;99980.94;4902664;28;122635;-76
2022/09/17 09:41:10;;;;;;;26.20;4.65;;;;;;;19.64;58.16;99976.00;4907780;28;120159;-76
2022/09/17 09:43:46;;;;;;;29.65;4.43;;;;;;;19.69;58.45;99980.72;4898998;28;122619;-76
2022/09/17 09:46:27;;;;;;;46.25;4.90;;;;;;;19.75;59.43;99980.63;4936888;28;120837;-76
2022/09/17 09:49:12;;;;;;;18.10;3.60;;;;;;;19.90;57.77;99980.88;4932805;28;120114;-77
2022/09/17 09:51:51;;;;;;;19.20;3.50;;;;;;;19.99;56.41;99979.72;4916999;28;120103;-76
2022/09/17 09:54:40;;;;;;;23.88;3.60;;;;;;;19.99;56.36;99976.94;4934017;28;120421;-77
2022/09/17 09:57:46;;;;;;;42.70;5.20;;;;;;;20.06;57.58;99970.72;4917659;28;120457;-76
2022/09/17 10:00:37;;;;;;;38.53;4.43;;;;;;;20.14;58.95;99969.56;4933587;28;120295;-76
2022/09/17 10:03:30;;;;;;;34.95;3.72;;;;;;;20.18;57.21;99977.59;4918271;28;121171;-77
2022/09/17 10:06:08;;;;;;;60.25;5.25;;;;;;;20.25;57.83;99976.94;4920504;28;120281;-77
2022/09/17 10:08:36;;;;;;;39.20;4.47;;;;;;;20.45;58.30;99979.13;4903051;28;121442;-76
2022/09/17 10:11:19;;;;;;;28.75;4.00;;;;;;;20.60;57.67;99973.03;4925712;28;120118;-77
2022/09/17 10:13:45;;;;;;;37.17;4.03;;;;;;;20.70;56.48;99976.88;4918299;28;120659;-76
2022/09/17 10:16:16;;;;;;;35.92;3.80;;;;;;;20.82;56.08;99983.72;4919807;28;121773;-77
2022/09/17 10:18:43;;;;;;;27.60;3.42;;;;;;;20.86;55.61;99974.28;4920884;28;121989;-77
2022/09/17 10:21:41;;;;;;;39.87;3.83;;;;;;;20.83;55.00;99985.22;4907978;28;120912;-77
2022/09/17 10:24:30;;;;;;;36.67;3.58;;;;;;;20.80;54.94;99977.91;4873357;28;120602;-76
2022/09/17 10:27:01;;;;;;;26.00;3.30;;;;;;;20.87;56.53;99978.56;4922576;28;121744;-78
2022/09/17 10:29:27;;;;;;;33.30;5.20;;;;;;;20.99;56.55;99971.44;4891233;28;121007;-77
2022/09/17 10:31:55;;;;;;;43.17;4.10;;;;;;;21.18;55.03;99974.09;4907447;28;122078;-76
2022/09/17 10:34:29;;;;;;;36.20;3.40;;;;;;;21.33;51.50;99979.88;4923602;28;121059;-77
2022/09/17 10:36:56;;;;;;;16.05;2.47;;;;;;;21.38;49.61;99984.56;4936777;28;122380;-77
2022/09/17 10:39:49;;;;;;;33.33;3.08;;;;;;;21.47;52.69;99980.53;4922297;28;122976;-76
2022/09/17 10:42:17;;;;;;;24.80;2.03;;;;;;;21.57;52.90;99973.97;4921830;28;120650;-77
2022/09/17 10:44:56;;;;;;;42.17;3.33;;;;;;;21.70;48.33;99971.09;4921462;28;120596;-76
2022/09/17 10:47:25;;;;;;;49.33;3.40;;;;;;;21.85;50.17;99967.69;4922427;28;120368;-76
2022/09/17 10:50:01;;;;;;;15.63;3.80;;;;;;;21.95;47.28;99967.94;4922013;28;120324;-77
2022/09/17 10:52:33;;;;;;;22.00;2.30;;;;;;;21.89;48.78;99973.69;4936756;28;120568;-77
2022/09/17 10:55:21;;;;;;;53.17;16.27;;;;;;;21.80;49.05;99967.84;4921216;28;120300;-77
2022/09/17 10:58:06;;;;;;;34.83;12.90;;;;;;;21.65;49.86;99968.44;4907885;28;120688;-77
2022/09/17 11:00:38;;;;;;;21.40;2.17;;;;;;;21.57;50.36;99973.22;4921306;28;120192;-77
2022/09/17 11:03:23;;;;;;;33.97;2.80;;;;;;;21.56;50.48;99978.06;4920784;28;120263;-78
2022/09/17 11:06:02;;;;;;;23.88;4.63;;;;;;;21.52;48.31;99977.63;4905073;28;120894;-77
2022/09/17 11:08:47;;;;;;;16.25;2.03;;;;;;;21.44;49.83;99974.00;4917311;28;121350;-77
2022/09/17 11:11:34;;;;;;;22.85;5.85;;;;;;;21.41;48.37;99983.47;4921063;28;122369;-78
2022/09/17 11:14:11;;;;;;;14.70;2.30;;;;;;;21.30;50.92;99987.28;4920824;28;120203;-77
2022/09/17 11:16:38;;;;;;;13.50;2.30;;;;;;;21.22;51.62;99983.59;4931977;28;122626;-77
2022/09/17 11:19:39;;;;;;;19.73;3.50;;;;;;;21.14;51.31;99988.38;4925328;28;121437;-76
2022/09/17 11:22:24;;;;;;;21.58;4.20;;;;;;;20.98;52.17;99979.06;4903399;28;120179;-77
2022/09/17 11:25:08;;;;;;;23.65;2.70;;;;;;;20.95;52.56;99987.75;4919310;28;121233;-82
2022/09/17 11:27:58;;;;;;;33.28;5.15;;;;;;;20.91;52.46;99996.47;4905549;28;120846;-77
2022/09/17 11:30:31;;;;;;;10.05;1.80;;;;;;;20.86;51.09;99993.78;4935778;28;120288;-78
2022/09/17 11:33:06;;;;;;;30.23;3.00;;;;;;;20.82;52.52;99996.91;4906586;28;122094;-77
2022/09/17 11:35:37;;;;;;;16.80;2.70;;;;;;;20.79;53.96;100004.28;4920222;28;120344;-78
2022/09/17 11:38:23;;;;;;;25.10;2.85;;;;;;;20.75;54.73;99995.50;4904425;28;120522;-77
2022/09/17 11:41:01;;;;;;;33.83;3.40;;;;;;;20.74;55.18;100002.38;4906201;28;121300;-77
2022/09/17 11:43:34;;;;;;;24.38;2.35;;;;;;;20.70;55.34;100010.31;4887618;28;121404;-77